sensor_id;sensor_type;location;lat;lon;timestamp;pressure;altitude;pressure_sealevel;temperature;humidity
59055;BME280;44845;51.444;7.460;2023-03-25T00:01:16;98503.25;;;9.52;76.33
59055;BME280;44845;51.444;7.460;2023-03-25T00:03:43;98503.94;;;9.59;76.33
59055;BME280;44845;51.444;7.460;2023-03-25T00:06:14;98506.59;;;9.57;76.20
59055;BME280;44845;51.444;7.460;2023-03-25T00:08:40;98505.81;;;9.54;76.14
59055;BME280;44845;51.444;7.460;2023-03-25T00:11:06;98511.97;;;9.51;75.63
59055;BME280;44845;51.444;7.460;2023-03-25T00:13:33;98509.06;;;9.27;75.50
59055;BME280;44845;51.444;7.460;2023-03-25T00:15:59;98504.34;;;9.42;75.70
59055;BME280;44845;51.444;7.460;2023-03-25T00:18:27;98511.28;;;9.44;75.63
59055;BME280;44845;51.444;7.460;2023-03-25T00:20:59;98504.97;;;9.53;75.71
59055;BME280;44845;51.444;7.460;2023-03-25T00:23:26;98496.50;;;9.42;74.55
59055;BME280;44845;51.444;7.460;2023-03-25T00:25:52;98487.59;;;9.49;74.57
59055;BME280;44845;51.444;7.460;2023-03-25T00:28:17;98501.69;;;9.45;73.84
59055;BME280;44845;51.444;7.460;2023-03-25T00:30:44;98503.47;;;9.43;74.28
59055;BME280;44845;51.444;7.460;2023-03-25T00:33:09;98497.03;;;9.21;74.37
59055;BME280;44845;51.444;7.460;2023-03-25T00:35:36;98495.06;;;9.30;74.36
59055;BME280;44845;51.444;7.460;2023-03-25T00:38:02;98503.72;;;9.33;74.07
59055;BME280;44845;51.444;7.460;2023-03-25T00:40:30;98498.66;;;9.26;74.24
59055;BME280;44845;51.444;7.460;2023-03-25T00:43:00;98499.31;;;9.34;74.12
59055;BME280;44845;51.444;7.460;2023-03-25T00:45:26;98508.78;;;9.40;74.17
59055;BME280;44845;51.444;7.460;2023-03-25T00:47:51;98496.69;;;9.35;73.33
59055;BME280;44845;51.444;7.460;2023-03-25T00:50:17;98497.50;;;9.38;74.02
59055;BME280;44845;51.444;7.460;2023-03-25T00:52:43;98489.81;;;9.31;74.13
59055;BME280;44845;51.444;7.460;2023-03-25T00:55:08;98494.94;;;9.34;74.00
59055;BME280;44845;51.444;7.460;2023-03-25T00:57:34;98489.56;;;9.41;73.98
59055;BME280;44845;51.444;7.460;2023-03-25T01:00:00;98492.09;;;9.44;74.36
59055;BME280;44845;51.444;7.460;2023-03-25T01:02:26;98499.88;;;9.47;74.24
59055;BME280;44845;51.444;7.460;2023-03-25T01:04:51;98498.16;;;9.46;73.91
59055;BME280;44845;51.444;7.460;2023-03-25T01:07:17;98493.94;;;9.40;74.09
59055;BME280;44845;51.444;7.460;2023-03-25T01:09:47;98494.63;;;9.47;73.63
59055;BME280;44845;51.444;7.460;2023-03-25T01:12:14;98492.94;;;9.46;74.31
59055;BME280;44845;51.444;7.460;2023-03-25T01:14:40;98494.63;;;9.47;73.64
59055;BME280;44845;51.444;7.460;2023-03-25T01:17:06;98484.97;;;9.51;73.65
59055;BME280;44845;51.444;7.460;2023-03-25T01:19:31;98496.31;;;9.50;73.74
59055;BME280;44845;51.444;7.460;2023-03-25T01:21:56;98491.38;;;9.39;73.52
59055;BME280;44845;51.444;7.460;2023-03-25T01:24:22;98493.06;;;9.40;73.49
59055;BME280;44845;51.444;7.460;2023-03-25T01:26:47;98491.28;;;9.42;73.59
59055;BME280;44845;51.444;7.460;2023-03-25T01:29:14;98495.03;;;9.31;73.30
59055;BME280;44845;51.444;7.460;2023-03-25T01:31:40;98478.47;;;9.31;73.57
59055;BME280;44845;51.444;7.460;2023-03-25T01:34:06;98489.56;;;9.41;73.25
59055;BME280;44845;51.444;7.460;2023-03-25T01:36:33;98487.91;;;9.37;73.06
59055;BME280;44845;51.444;7.460;2023-03-25T01:39:00;98482.91;;;9.27;73.01
59055;BME280;44845;51.444;7.460;2023-03-25T01:41:28;98486.13;;;9.39;73.41
59055;BME280;44845;51.444;7.460;2023-03-25T01:46:47;98477.25;;;9.46;73.48
59055;BME280;44845;51.444;7.460;2023-03-25T01:49:15;98471.06;;;9.49;73.06
59055;BME280;44845;51.444;7.460;2023-03-25T01:51:43;98485.16;;;9.43;72.91
59055;BME280;44845;51.444;7.460;2023-03-25T01:54:12;98476.31;;;9.49;72.83
59055;BME280;44845;51.444;7.460;2023-03-25T01:56:42;98473.88;;;9.41;71.92
59055;BME280;44845;51.444;7.460;2023-03-25T01:59:10;98472.03;;;9.44;71.39
59055;BME280;44845;51.444;7.460;2023-03-25T02:01:37;98475.44;;;9.48;72.42
59055;BME280;44845;51.444;7.460;2023-03-25T02:04:02;98476.50;;;9.41;72.51
59055;BME280;44845;51.444;7.460;2023-03-25T02:06:43;98459.56;;;9.54;72.12
59055;BME280;44845;51.444;7.460;2023-03-25T02:09:10;98460.50;;;9.52;71.99
59055;BME280;44845;51.444;7.460;2023-03-25T02:11:38;98451.88;;;9.48;71.79
59055;BME280;44845;51.444;7.460;2023-03-25T02:14:07;98462.53;;;9.40;71.53
59055;BME280;44845;51.444;7.460;2023-03-25T02:25:26;98459.03;;;9.41;70.58
59055;BME280;44845;51.444;7.460;2023-03-25T02:42:06;98460.78;;;9.41;70.47
59055;BME280;44845;51.444;7.460;2023-03-25T02:44:59;98464.06;;;9.49;70.34
59055;BME280;44845;51.444;7.460;2023-03-25T02:47:30;98466.16;;;9.36;70.63
59055;BME280;44845;51.444;7.460;2023-03-25T02:50:02;98474.13;;;9.31;70.75
59055;BME280;44845;51.444;7.460;2023-03-25T02:52:46;98467.84;;;9.37;70.46
59055;BME280;44845;51.444;7.460;2023-03-25T02:55:13;98468.72;;;9.38;70.19
59055;BME280;44845;51.444;7.460;2023-03-25T02:57:44;98472.44;;;9.27;68.76
59055;BME280;44845;51.444;7.460;2023-03-25T03:00:13;98465.34;;;9.32;70.04
59055;BME280;44845;51.444;7.460;2023-03-25T03:02:45;98473.88;;;9.41;70.78
59055;BME280;44845;51.444;7.460;2023-03-25T03:05:38;98464.47;;;9.32;70.40
59055;BME280;44845;51.444;7.460;2023-03-25T03:11:13;98461.84;;;9.33;69.91
59055;BME280;44845;51.444;7.460;2023-03-25T03:17:11;98467.78;;;9.40;70.47
59055;BME280;44845;51.444;7.460;2023-03-25T03:19:44;98456.44;;;9.40;69.87
59055;BME280;44845;51.444;7.460;2023-03-25T03:25:05;98461.53;;;9.46;70.26
59055;BME280;44845;51.444;7.460;2023-03-25T03:27:48;98459.03;;;9.41;70.01
59055;BME280;44845;51.444;7.460;2023-03-25T03:35:27;98456.75;;;9.27;69.85
59055;BME280;44845;51.444;7.460;2023-03-25T03:37:59;98456.50;;;9.37;70.88
59055;BME280;44845;51.444;7.460;2023-03-25T03:40:27;98460.94;;;9.34;70.32
59055;BME280;44845;51.444;7.460;2023-03-25T03:42:58;98456.69;;;9.30;70.40
59055;BME280;44845;51.444;7.460;2023-03-25T03:45:30;98453.25;;;9.28;70.00
59055;BME280;44845;51.444;7.460;2023-03-25T03:48:02;98458.38;;;9.33;70.00
59055;BME280;44845;51.444;7.460;2023-03-25T03:50:33;98453.72;;;9.44;70.65
59055;BME280;44845;51.444;7.460;2023-03-25T03:53:08;98463.53;;;9.34;71.00
59055;BME280;44845;51.444;7.460;2023-03-25T03:58:11;98455.56;;;9.39;71.98
59055;BME280;44845;51.444;7.460;2023-03-25T04:01:02;98465.63;;;9.21;72.26
59055;BME280;44845;51.444;7.460;2023-03-25T04:03:39;98469.72;;;9.32;71.90
59055;BME280;44845;51.444;7.460;2023-03-25T04:06:14;98466.47;;;9.22;72.30
59055;BME280;44845;51.444;7.460;2023-03-25T04:08:51;98453.31;;;9.25;72.50
59055;BME280;44845;51.444;7.460;2023-03-25T04:11:25;98469.00;;;9.25;72.47
59055;BME280;44845;51.444;7.460;2023-03-25T04:13:52;98465.66;;;9.20;72.41
59055;BME280;44845;51.444;7.460;2023-03-25T04:16:21;98455.56;;;9.04;71.99
59055;BME280;44845;51.444;7.460;2023-03-25T04:18:46;98454.44;;;9.15;71.78
59055;BME280;44845;51.444;7.460;2023-03-25T04:21:12;98455.69;;;8.99;72.30
59055;BME280;44845;51.444;7.460;2023-03-25T04:23:39;98450.38;;;9.03;71.99
59055;BME280;44845;51.444;7.460;2023-03-25T04:26:05;98456.41;;;9.05;71.46
59055;BME280;44845;51.444;7.460;2023-03-25T04:28:31;98454.66;;;9.07;71.50
59055;BME280;44845;51.444;7.460;2023-03-25T04:30:57;98453.03;;;9.01;70.14
59055;BME280;44845;51.444;7.460;2023-03-25T04:33:25;98464.16;;;9.09;71.41
59055;BME280;44845;51.444;7.460;2023-03-25T04:35:54;98453.63;;;9.12;71.31
59055;BME280;44845;51.444;7.460;2023-03-25T04:38:19;98446.59;;;9.15;71.04
59055;BME280;44845;51.444;7.460;2023-03-25T04:40:45;98455.78;;;8.95;71.13
59055;BME280;44845;51.444;7.460;2023-03-25T04:43:15;98466.03;;;9.04;71.10
59055;BME280;44845;51.444;7.460;2023-03-25T04:45:42;98457.50;;;8.96;70.88
59055;BME280;44845;51.444;7.460;2023-03-25T04:48:22;98459.00;;;9.06;71.19
59055;BME280;44845;51.444;7.460;2023-03-25T04:50:48;98450.34;;;9.04;70.84
59055;BME280;44845;51.444;7.460;2023-03-25T04:53:16;98455.53;;;9.06;71.37
59055;BME280;44845;51.444;7.460;2023-03-25T04:55:41;98465.16;;;9.04;71.15
59055;BME280;44845;51.444;7.460;2023-03-25T04:58:12;98453.56;;;9.16;71.01
59055;BME280;44845;51.444;7.460;2023-03-25T05:00:38;98451.81;;;9.15;70.81
59055;BME280;44845;51.444;7.460;2023-03-25T05:03:03;98448.38;;;9.12;71.29
59055;BME280;44845;51.444;7.460;2023-03-25T05:05:29;98453.84;;;9.03;70.59
59055;BME280;44845;51.444;7.460;2023-03-25T05:07:54;98457.56;;;8.93;71.45
59055;BME280;44845;51.444;7.460;2023-03-25T05:10:23;98452.97;;;9.03;71.74
59055;BME280;44845;51.444;7.460;2023-03-25T05:12:49;98429.56;;;8.98;71.40
59055;BME280;44845;51.444;7.460;2023-03-25T05:15:15;98433.72;;;9.07;72.05
59055;BME280;44845;51.444;7.460;2023-03-25T05:17:42;98431.88;;;9.10;72.10
59055;BME280;44845;51.444;7.460;2023-03-25T05:20:08;98438.00;;;9.09;71.71
59055;BME280;44845;51.444;7.460;2023-03-25T05:22:35;98443.22;;;9.11;71.61
59055;BME280;44845;51.444;7.460;2023-03-25T05:25:05;98446.03;;;9.01;70.75
59055;BME280;44845;51.444;7.460;2023-03-25T05:27:31;98452.38;;;8.91;71.12
59055;BME280;44845;51.444;7.460;2023-03-25T05:29:56;98447.09;;;8.94;72.10
59055;BME280;44845;51.444;7.460;2023-03-25T05:32:23;98447.09;;;8.93;71.69
59055;BME280;44845;51.444;7.460;2023-03-25T05:34:50;98443.53;;;8.97;71.93
59055;BME280;44845;51.444;7.460;2023-03-25T05:37:17;98449.13;;;8.81;70.77
59055;BME280;44845;51.444;7.460;2023-03-25T05:39:43;98452.50;;;8.86;71.78
59055;BME280;44845;51.444;7.460;2023-03-25T05:42:08;98456.69;;;8.94;72.92
59055;BME280;44845;51.444;7.460;2023-03-25T05:44:35;98467.09;;;8.95;73.05
59055;BME280;44845;51.444;7.460;2023-03-25T05:47:00;98452.03;;;9.05;72.97
59055;BME280;44845;51.444;7.460;2023-03-25T05:49:28;98470.34;;;9.05;73.20
59055;BME280;44845;51.444;7.460;2023-03-25T05:51:54;98470.28;;;9.08;73.55
59055;BME280;44845;51.444;7.460;2023-03-25T05:54:20;98467.81;;;9.02;74.02
59055;BME280;44845;51.444;7.460;2023-03-25T05:56:45;98468.66;;;9.03;74.03
59055;BME280;44845;51.444;7.460;2023-03-25T05:59:10;98467.91;;;8.97;73.29
59055;BME280;44845;51.444;7.460;2023-03-25T06:01:38;98465.22;;;9.00;73.03
59055;BME280;44845;51.444;7.460;2023-03-25T06:04:06;98467.31;;;8.86;73.47
59055;BME280;44845;51.444;7.460;2023-03-25T06:06:34;98467.19;;;8.92;72.99
59055;BME280;44845;51.444;7.460;2023-03-25T06:09:01;98472.31;;;8.95;72.91
59055;BME280;44845;51.444;7.460;2023-03-25T06:11:27;98473.03;;;9.02;73.01
59055;BME280;44845;51.444;7.460;2023-03-25T06:13:52;98476.44;;;9.06;72.87
59055;BME280;44845;51.444;7.460;2023-03-25T06:16:21;98469.31;;;9.12;72.84
59055;BME280;44845;51.444;7.460;2023-03-25T06:18:52;98466.16;;;8.98;72.80
59055;BME280;44845;51.444;7.460;2023-03-25T06:21:21;98466.28;;;8.93;72.81
59055;BME280;44845;51.444;7.460;2023-03-25T06:23:47;98466.09;;;9.01;72.94
59055;BME280;44845;51.444;7.460;2023-03-25T06:26:14;98470.41;;;9.02;72.55
59055;BME280;44845;51.444;7.460;2023-03-25T06:28:40;98473.59;;;9.17;72.62
59055;BME280;44845;51.444;7.460;2023-03-25T06:33:41;98468.72;;;9.01;72.49
59055;BME280;44845;51.444;7.460;2023-03-25T06:36:07;98464.59;;;8.90;73.61
59055;BME280;44845;51.444;7.460;2023-03-25T06:38:33;98474.59;;;9.09;73.64
59055;BME280;44845;51.444;7.460;2023-03-25T06:40:58;98464.31;;;9.03;73.58
59055;BME280;44845;51.444;7.460;2023-03-25T06:43:23;98478.06;;;9.11;73.89
59055;BME280;44845;51.444;7.460;2023-03-25T06:45:50;98470.13;;;9.15;73.69
59055;BME280;44845;51.444;7.460;2023-03-25T06:48:15;98473.72;;;9.10;73.22
59055;BME280;44845;51.444;7.460;2023-03-25T06:50:41;98475.41;;;9.13;72.91
59055;BME280;44845;51.444;7.460;2023-03-25T06:53:06;98481.22;;;9.26;73.60
59055;BME280;44845;51.444;7.460;2023-03-25T06:55:32;98490.69;;;9.30;73.21
59055;BME280;44845;51.444;7.460;2023-03-25T06:57:57;98481.97;;;9.31;73.28
59055;BME280;44845;51.444;7.460;2023-03-25T07:00:22;98479.34;;;9.31;72.90
59055;BME280;44845;51.444;7.460;2023-03-25T07:02:51;98492.06;;;9.45;73.08
59055;BME280;44845;51.444;7.460;2023-03-25T07:05:16;98487.59;;;9.49;72.67
59055;BME280;44845;51.444;7.460;2023-03-25T07:07:41;98496.50;;;9.43;72.52
59055;BME280;44845;51.444;7.460;2023-03-25T07:10:07;98500.09;;;9.38;72.26
59055;BME280;44845;51.444;7.460;2023-03-25T07:12:33;98508.19;;;9.27;73.78
59055;BME280;44845;51.444;7.460;2023-03-25T07:14:59;98500.84;;;9.06;75.23
59055;BME280;44845;51.444;7.460;2023-03-25T07:17:25;98492.91;;;9.11;75.53
59055;BME280;44845;51.444;7.460;2023-03-25T07:19:50;98513.66;;;9.17;75.27
59055;BME280;44845;51.444;7.460;2023-03-25T07:22:16;98512.66;;;9.23;75.47
59055;BME280;44845;51.444;7.460;2023-03-25T07:24:41;98510.94;;;9.22;75.75
59055;BME280;44845;51.444;7.460;2023-03-25T07:27:12;98499.59;;;9.23;75.82
59055;BME280;44845;51.444;7.460;2023-03-25T07:29:38;98518.84;;;9.20;76.32
59055;BME280;44845;51.444;7.460;2023-03-25T07:32:03;98512.66;;;9.23;76.34
59055;BME280;44845;51.444;7.460;2023-03-25T07:34:29;98509.06;;;9.27;76.03
59055;BME280;44845;51.444;7.460;2023-03-25T07:36:55;98510.38;;;9.09;76.29
59055;BME280;44845;51.444;7.460;2023-03-25T07:39:20;98513.44;;;9.27;76.64
59055;BME280;44845;51.444;7.460;2023-03-25T07:41:46;98513.34;;;9.31;75.75
59055;BME280;44845;51.444;7.460;2023-03-25T07:44:11;98519.47;;;9.30;75.61
59055;BME280;44845;51.444;7.460;2023-03-25T07:46:38;98519.28;;;9.38;76.02
59055;BME280;44845;51.444;7.460;2023-03-25T07:49:03;98521.59;;;9.51;75.84
59055;BME280;44845;51.444;7.460;2023-03-25T07:51:29;98520.75;;;9.50;75.45
59055;BME280;44845;51.444;7.460;2023-03-25T07:53:54;98516.66;;;9.38;75.27
59055;BME280;44845;51.444;7.460;2023-03-25T07:56:20;98513.53;;;9.58;75.14
59055;BME280;44845;51.444;7.460;2023-03-25T07:58:45;98524.75;;;9.64;74.79
59055;BME280;44845;51.444;7.460;2023-03-25T08:01:11;98506.53;;;9.61;74.43
59055;BME280;44845;51.444;7.460;2023-03-25T08:03:36;98509.09;;;9.62;74.43
59055;BME280;44845;51.444;7.460;2023-03-25T08:06:04;98516.22;;;9.57;73.56
59055;BME280;44845;51.444;7.460;2023-03-25T08:08:30;98524.69;;;9.67;73.45
59055;BME280;44845;51.444;7.460;2023-03-25T08:10:56;98532.47;;;9.70;72.98
59055;BME280;44845;51.444;7.460;2023-03-25T08:13:22;98529.25;;;9.58;73.37
59055;BME280;44845;51.444;7.460;2023-03-25T08:15:47;98535.50;;;9.53;72.63
59055;BME280;44845;51.444;7.460;2023-03-25T08:18:12;98538.88;;;9.20;72.79
59055;BME280;44845;51.444;7.460;2023-03-25T08:20:38;98542.78;;;9.41;73.19
59055;BME280;44845;51.444;7.460;2023-03-25T08:23:03;98540.97;;;9.43;73.06
59055;BME280;44845;51.444;7.460;2023-03-25T08:25:35;98543.59;;;9.42;72.63
59055;BME280;44845;51.444;7.460;2023-03-25T08:28:00;98530.63;;;9.37;71.89
59055;BME280;44845;51.444;7.460;2023-03-25T08:30:26;98537.66;;;9.35;73.25
59055;BME280;44845;51.444;7.460;2023-03-25T08:32:51;98543.66;;;9.40;72.08
59055;BME280;44845;51.444;7.460;2023-03-25T08:35:19;98536.09;;;9.28;71.42
59055;BME280;44845;51.444;7.460;2023-03-25T08:37:46;98546.56;;;9.28;71.90
59055;BME280;44845;51.444;7.460;2023-03-25T08:40:11;98541.09;;;9.37;71.96
59055;BME280;44845;51.444;7.460;2023-03-25T08:42:37;98542.19;;;9.28;70.28
59055;BME280;44845;51.444;7.460;2023-03-25T08:45:03;98539.19;;;9.45;70.76
59055;BME280;44845;51.444;7.460;2023-03-25T08:47:29;98537.91;;;9.62;71.00
59055;BME280;44845;51.444;7.460;2023-03-25T08:49:55;98545.44;;;9.75;71.80
59055;BME280;44845;51.444;7.460;2023-03-25T08:52:20;98533.97;;;9.80;69.41
59055;BME280;44845;51.444;7.460;2023-03-25T08:54:46;98532.59;;;9.64;70.93
59055;BME280;44845;51.444;7.460;2023-03-25T08:57:11;98536.84;;;9.69;69.92
59055;BME280;44845;51.444;7.460;2023-03-25T08:59:37;98539.19;;;9.80;70.43
59055;BME280;44845;51.444;7.460;2023-03-25T09:02:02;98544.34;;;9.84;70.19
59055;BME280;44845;51.444;7.460;2023-03-25T09:04:28;98530.97;;;9.95;70.25
59055;BME280;44845;51.444;7.460;2023-03-25T09:06:53;98534.22;;;10.03;69.74
59055;BME280;44845;51.444;7.460;2023-03-25T09:09:18;98523.69;;;10.06;70.26
59055;BME280;44845;51.444;7.460;2023-03-25T09:11:44;98518.28;;;10.12;70.22
59055;BME280;44845;51.444;7.460;2023-03-25T09:14:09;98527.84;;;10.13;69.86
59055;BME280;44845;51.444;7.460;2023-03-25T09:16:35;98531.25;;;10.17;69.53
59055;BME280;44845;51.444;7.460;2023-03-25T09:19:01;98525.16;;;10.15;69.67
59055;BME280;44845;51.444;7.460;2023-03-25T09:21:26;98527.03;;;10.11;68.87
59055;BME280;44845;51.444;7.460;2023-03-25T09:23:51;98523.41;;;10.16;68.16
59055;BME280;44845;51.444;7.460;2023-03-25T09:26:17;98530.19;;;10.24;68.30
59055;BME280;44845;51.444;7.460;2023-03-25T09:28:42;98525.56;;;10.33;69.10
59055;BME280;44845;51.444;7.460;2023-03-25T09:31:08;98533.28;;;10.39;68.93
59055;BME280;44845;51.444;7.460;2023-03-25T09:33:34;98526.31;;;10.38;68.28
59055;BME280;44845;51.444;7.460;2023-03-25T09:36:00;98527.91;;;10.44;69.22
59055;BME280;44845;51.444;7.460;2023-03-25T09:38:26;98524.91;;;10.58;70.19
59055;BME280;44845;51.444;7.460;2023-03-25T09:40:52;98521.59;;;10.50;68.88
59055;BME280;44845;51.444;7.460;2023-03-25T09:45:47;98516.53;;;10.43;67.31
59055;BME280;44845;51.444;7.460;2023-03-25T09:50:46;98514.41;;;10.58;68.63
59055;BME280;44845;51.444;7.460;2023-03-25T09:53:34;98514.75;;;10.45;68.83
59055;BME280;44845;51.444;7.460;2023-03-25T09:56:05;98520.34;;;10.65;69.09
59055;BME280;44845;51.444;7.460;2023-03-25T10:01:16;98530.66;;;10.71;68.98
59055;BME280;44845;51.444;7.460;2023-03-25T10:07:03;98529.19;;;10.61;69.14
59055;BME280;44845;51.444;7.460;2023-03-25T10:09:57;98535.47;;;10.55;69.69
59055;BME280;44845;51.444;7.460;2023-03-25T10:15:19;98529.94;;;10.64;69.22
59055;BME280;44845;51.444;7.460;2023-03-25T10:18:00;98531.53;;;10.72;68.72
59055;BME280;44845;51.444;7.460;2023-03-25T10:20:49;98527.38;;;10.63;67.88
59055;BME280;44845;51.444;7.460;2023-03-25T10:23:41;98540.81;;;10.52;67.06
59055;BME280;44845;51.444;7.460;2023-03-25T10:26:24;98526.84;;;10.50;68.35
59055;BME280;44845;51.444;7.460;2023-03-25T10:29:03;98523.00;;;10.63;67.86
59055;BME280;44845;51.444;7.460;2023-03-25T10:31:33;98529.50;;;10.80;68.31
59055;BME280;44845;51.444;7.460;2023-03-25T10:34:04;98514.88;;;10.73;67.48
59055;BME280;44845;51.444;7.460;2023-03-25T10:36:37;98522.72;;;10.73;67.95
59055;BME280;44845;51.444;7.460;2023-03-25T10:39:12;98520.44;;;10.62;67.01
59055;BME280;44845;51.444;7.460;2023-03-25T10:41:39;98524.91;;;10.88;68.21
59055;BME280;44845;51.444;7.460;2023-03-25T10:44:10;98525.03;;;10.84;67.43
59055;BME280;44845;51.444;7.460;2023-03-25T10:47:06;98523.69;;;10.99;67.56
59055;BME280;44845;51.444;7.460;2023-03-25T10:49:34;98533.19;;;11.03;67.48
59055;BME280;44845;51.444;7.460;2023-03-25T10:52:01;98532.00;;;10.85;66.10
59055;BME280;44845;51.444;7.460;2023-03-25T10:54:33;98527.53;;;10.88;66.59
59055;BME280;44845;51.444;7.460;2023-03-25T10:57:15;98520.25;;;10.97;66.25
59055;BME280;44845;51.444;7.460;2023-03-25T11:00:05;98525.84;;;11.14;67.47
59055;BME280;44845;51.444;7.460;2023-03-25T11:02:38;98521.94;;;11.28;66.57
59055;BME280;44845;51.444;7.460;2023-03-25T11:05:06;98525.97;;;11.38;65.87
59055;BME280;44845;51.444;7.460;2023-03-25T11:07:39;98523.09;;;11.46;66.44
59055;BME280;44845;51.444;7.460;2023-03-25T11:12:49;98538.28;;;11.36;64.57
59055;BME280;44845;51.444;7.460;2023-03-25T11:15:25;98528.97;;;11.53;65.58
59055;BME280;44845;51.444;7.460;2023-03-25T11:18:06;98532.84;;;11.43;65.33
59055;BME280;44845;51.444;7.460;2023-03-25T11:20:51;98550.53;;;11.63;65.00
59055;BME280;44845;51.444;7.460;2023-03-25T11:25:51;98553.16;;;11.65;65.32
59055;BME280;44845;51.444;7.460;2023-03-25T11:28:21;98561.75;;;11.68;65.21
59055;BME280;44845;51.444;7.460;2023-03-25T11:33:39;98554.25;;;11.29;69.11
59055;BME280;44845;51.444;7.460;2023-03-25T11:36:20;98561.09;;;11.34;69.78
59055;BME280;44845;51.444;7.460;2023-03-25T11:38:51;98570.16;;;11.24;69.38
59055;BME280;44845;51.444;7.460;2023-03-25T11:41:17;98573.00;;;11.16;69.94
59055;BME280;44845;51.444;7.460;2023-03-25T11:43:47;98567.50;;;11.25;70.42
59055;BME280;44845;51.444;7.460;2023-03-25T11:46:17;98564.81;;;11.27;70.67
59055;BME280;44845;51.444;7.460;2023-03-25T11:48:45;98559.06;;;11.15;70.40
59055;BME280;44845;51.444;7.460;2023-03-25T11:51:18;98560.31;;;11.31;71.25
59055;BME280;44845;51.444;7.460;2023-03-25T11:53:52;98550.81;;;11.28;71.83
59055;BME280;44845;51.444;7.460;2023-03-25T11:56:21;98549.06;;;11.27;72.81
59055;BME280;44845;51.444;7.460;2023-03-25T11:58:48;98556.16;;;11.25;72.06
59055;BME280;44845;51.444;7.460;2023-03-25T12:01:37;98554.50;;;11.21;72.34
59055;BME280;44845;51.444;7.460;2023-03-25T12:04:17;98568.63;;;11.17;73.25
59055;BME280;44845;51.444;7.460;2023-03-25T12:07:00;98571.41;;;11.12;73.04
59055;BME280;44845;51.444;7.460;2023-03-25T12:09:28;98579.63;;;11.01;72.93
59055;BME280;44845;51.444;7.460;2023-03-25T12:19:50;98562.59;;;10.84;77.30
59055;BME280;44845;51.444;7.460;2023-03-25T12:38:17;98579.19;;;10.85;74.78
59055;BME280;44845;51.444;7.460;2023-03-25T12:41:21;98553.38;;;10.70;74.22
59055;BME280;44845;51.444;7.460;2023-03-25T12:44:06;98546.69;;;10.90;75.13
59055;BME280;44845;51.444;7.460;2023-03-25T13:00:52;98543.91;;;10.66;72.79
59055;BME280;44845;51.444;7.460;2023-03-25T13:03:46;98555.44;;;10.91;72.08
59055;BME280;44845;51.444;7.460;2023-03-25T13:06:41;98537.06;;;10.91;70.81
59055;BME280;44845;51.444;7.460;2023-03-25T13:11:53;98523.00;;;10.94;69.69
59055;BME280;44845;51.444;7.460;2023-03-25T13:14:38;98535.03;;;11.01;70.52
59055;BME280;44845;51.444;7.460;2023-03-25T13:17:11;98519.22;;;11.02;69.84
59055;BME280;44845;51.444;7.460;2023-03-25T13:19:41;98528.94;;;10.99;69.65
59055;BME280;44845;51.444;7.460;2023-03-25T13:22:22;98516.84;;;10.95;68.73
59055;BME280;44845;51.444;7.460;2023-03-25T13:24:56;98529.06;;;10.94;69.12
59055;BME280;44845;51.444;7.460;2023-03-25T13:27:23;98515.97;;;10.94;68.21
59055;BME280;44845;51.444;7.460;2023-03-25T13:29:52;98522.47;;;11.11;68.43
59055;BME280;44845;51.444;7.460;2023-03-25T13:32:41;98522.03;;;11.25;68.40
59055;BME280;44845;51.444;7.460;2023-03-25T13:35:18;98507.09;;;11.27;68.64
59055;BME280;44845;51.444;7.460;2023-03-25T13:37:48;98528.09;;;11.27;67.17
59055;BME280;44845;51.444;7.460;2023-03-25T13:40:22;98500.47;;;11.15;67.05
59055;BME280;44845;51.444;7.460;2023-03-25T13:42:57;98503.00;;;11.18;66.20
59055;BME280;44845;51.444;7.460;2023-03-25T13:45:23;98523.94;;;11.20;67.65
59055;BME280;44845;51.444;7.460;2023-03-25T13:48:22;98530.06;;;11.19;67.36
59055;BME280;44845;51.444;7.460;2023-03-25T13:50:51;98529.19;;;11.20;68.16
59055;BME280;44845;51.444;7.460;2023-03-25T13:53:24;98545.47;;;11.02;69.25
59055;BME280;44845;51.444;7.460;2023-03-25T14:01:31;98554.41;;;10.95;69.09
59055;BME280;44845;51.444;7.460;2023-03-25T14:04:30;98560.91;;;10.83;67.97
59055;BME280;44845;51.444;7.460;2023-03-25T14:13:10;98564.41;;;10.82;68.74
59055;BME280;44845;51.444;7.460;2023-03-25T14:15:40;98559.09;;;10.85;68.05
59055;BME280;44845;51.444;7.460;2023-03-25T14:18:15;98552.38;;;10.75;66.50
59055;BME280;44845;51.444;7.460;2023-03-25T14:20:42;98563.38;;;10.88;65.62
59055;BME280;44845;51.444;7.460;2023-03-25T14:23:14;98567.66;;;10.90;66.57
59055;BME280;44845;51.444;7.460;2023-03-25T14:25:56;98556.50;;;10.84;67.54
59055;BME280;44845;51.444;7.460;2023-03-25T14:28:40;98568.47;;;10.92;67.15
59055;BME280;44845;51.444;7.460;2023-03-25T14:44:39;98574.63;;;10.61;67.25
59055;BME280;44845;51.444;7.460;2023-03-25T14:49:50;98564.53;;;10.79;69.01
59055;BME280;44845;51.444;7.460;2023-03-25T14:52:29;98567.38;;;10.69;69.75
59055;BME280;44845;51.444;7.460;2023-03-25T14:54:55;98572.00;;;10.61;69.62
59055;BME280;44845;51.444;7.460;2023-03-25T14:57:23;98574.75;;;10.56;70.78
59055;BME280;44845;51.444;7.460;2023-03-25T14:59:59;98587.25;;;10.46;72.68
59055;BME280;44845;51.444;7.460;2023-03-25T15:02:33;98600.19;;;10.53;73.91
59055;BME280;44845;51.444;7.460;2023-03-25T15:07:56;98609.34;;;10.36;76.00
59055;BME280;44845;51.444;7.460;2023-03-25T15:12:59;98591.97;;;9.98;76.61
59055;BME280;44845;51.444;7.460;2023-03-25T15:15:29;98584.78;;;10.07;77.35
59055;BME280;44845;51.444;7.460;2023-03-25T15:17:55;98584.66;;;10.11;76.62
59055;BME280;44845;51.444;7.460;2023-03-25T15:25:45;98592.25;;;10.22;77.44
59055;BME280;44845;51.444;7.460;2023-03-25T15:34:05;98600.00;;;10.25;77.20
59055;BME280;44845;51.444;7.460;2023-03-25T15:40:06;98599.28;;;10.20;77.52
59055;BME280;44845;51.444;7.460;2023-03-25T15:43:10;98609.81;;;10.19;77.01
59055;BME280;44845;51.444;7.460;2023-03-25T15:48:48;98588.44;;;9.66;77.11
59055;BME280;44845;51.444;7.460;2023-03-25T15:57:29;98580.38;;;10.09;76.98
59055;BME280;44845;51.444;7.460;2023-03-25T16:02:46;98592.44;;;10.14;76.44
59055;BME280;44845;51.444;7.460;2023-03-25T16:05:15;98581.97;;;10.14;76.51
59055;BME280;44845;51.444;7.460;2023-03-25T16:07:41;98583.66;;;10.17;77.19
59055;BME280;44845;51.444;7.460;2023-03-25T16:12:42;98580.38;;;10.09;76.46